ローマ・レオナルド・ダ・ビンチ国際空港の過去48時間の天気

ローマ・レオナルド・ダ・ビンチ国際空港 (Roma Fiumicino)

現在時刻: 11/18 10:02 CET (11/18 09:02 UTC) 以下の時間は現地時間です。

過去48時間のMETAR気象情報
時間 風向 風速(m/s) 視程 気温(℃) 湿度(%) 気圧(hPa) 天気現象
18 09:50 南東 6 10km以上 15 72 1014
18 09:20 南東 5 10km以上 13 82 1014
18 08:50 南東 5 10km以上 13 82 1013
18 08:20 東南東 5 10km以上 12 82 1013
18 07:50 南東 5 10km以上 12 82 1013 周辺でしゅう雨
18 07:20 東南東 4 10km以上 12 82 1013
18 06:50 南東 4 10km以上 12 82 1013
18 06:20 南東 5 10km以上 12 82 1012
18 05:50 南南西 4 10km以上 14 72 1012
18 05:20 南南西 4 10km以上 14 72 1012
18 04:50 南南西 6 10km以上 14 72 1012
18 04:20 3 10km以上 10 87 1012
18 03:50 3 10km以上 9 93 1011
18 03:20 南西 4 10km以上 13 72 1011
18 02:50 南西 4 10km以上 14 67 1011
18 02:20 南西 4 10km以上 13 72 1011
18 01:50 不定 2 10km以上 11 87 1011
18 01:20 3 10km以上 11 94 1011
18 00:50 2 10km以上 9 100 1011
18 00:20 2 10km以上 10 94 1011
17 23:50 東北東 2 10km以上 10 94 1011
17 23:20 不定 1 10km以上 10 94 1010
17 22:50 東北東 3 10km以上 10 94 1010
17 22:20 不定 1 10km以上 10 100 1010 弱い雨
17 21:50 東北東 2 10km以上 10 94 1010 弱い雨
17 21:20 東北東 2 10km以上 10 94 1010
17 20:50 東北東 2 10km以上 10 94 1010
17 20:20 東北東 3 10km以上 11 87 1009
17 19:50 2 10km以上 12 82 1009
17 19:20 東南東 2 10km以上 11 87 1009
17 18:50 東北東 3 10km以上 12 82 1008
17 18:20 東北東 2 10km以上 12 82 1008
17 17:50 2 10km以上 12 82 1007
17 17:20 西北西 3 10km以上 13 77 1007
17 16:50 北西 4 10km以上 13 82 1006
17 15:50 西北西 6 10km以上 14 77 1005
17 15:20 西北西 8 7000m 13 94 1005 弱いしゅう雨
17 14:50 西 3 10km以上 15 82 1004 弱いしゅう雨
17 14:20 西南西 5 10km以上 15 82 1003 弱いしゅう雨
17 13:50 4 6000m 17 63 1003 しゅう雨
17 13:20 南東 3 10km以上 16 77 1003 周辺でしゅう雨
17 12:50 南東 3 10km以上 15 82 1002
17 12:20 南南東 4 10km以上 15 82 1003 弱い雨
17 11:50 南南西 7 10km以上 16 77 1003
17 11:20 6 10km以上 16 77 1003 しゅう雨
17 10:50 5 10km以上 18 60 1003
17 10:20 6 10km以上 17 63 1003
17 09:50 6 10km以上 17 63 1003
17 09:20 7 10km以上 17 59 1003
17 08:50 9 10km以上 17 63 1002
17 08:20 8 10km以上 17 63 1002
17 07:50 10 10km以上 17 68 1001
17 07:20 南南西 12 10km以上 18 73 1001 周辺で雷
17 06:50 9 9000m 18 73 1000 周辺で雷
17 06:20 南南東 10 9000m 18 88 1000
17 05:50 南南東 9 9000m 18 88 999
17 05:20 南南東 10 9000m 17 88 999 周辺で雷
17 04:50 南東 12 5000m 18 83 998 雷雨
17 04:20 南東 13 10km以上 19 78 999
17 03:50 南東 13 10km以上 18 77 999
17 03:20 南東 12 10km以上 18 77 1000
17 02:50 南東 12 8000m 18 83 1000 弱いしゅう雨
17 02:20 南東 13 7000m 18 77 1001
17 01:50 南東 13 10km以上 19 73 1001
17 01:20 南東 13 10km以上 20 68 1001
17 00:50 南東 12 10km以上 19 73 1001
17 00:20 南東 12 10km以上 19 73 1001
16 23:50 南東 13 10km以上 20 64 1002
16 23:20 南東 12 10km以上 20 64 1002
16 22:50 南東 12 10km以上 19 73 1002
16 22:20 南東 13 10km以上 20 68 1002
16 21:50 南東 11 10km以上 19 73 1002
16 21:20 南東 12 10km以上 19 73 1003
16 20:50 南東 11 10km以上 19 73 1003
16 20:20 南東 11 10km以上 19 73 1003 周辺で雷
16 19:50 南東 10 10km以上 18 83 1003 弱い雨 周辺で雷
16 19:20 東南東 11 8000m 17 83 1002 雷雨
16 18:50 南東 8 8000m 17 83 1004
16 18:20 東南東 5 8000m 16 88 1004
16 17:50 5 10km以上 15 82 1004 弱い雨
16 17:20 6 8000m 14 88 1005 弱い雨 周辺で雷
16 16:50 東北東 6 8000m 14 88 1005 弱い雨 周辺で雷
16 16:20 東北東 4 6000m 14 88 1006 雨 周辺で雷
16 15:50 東北東 4 8000m 14 88 1007 弱い雨
16 15:20 東北東 7 8000m 14 88 1007 弱い雨
16 14:50 東北東 7 10km以上 14 88 1007
16 14:20 北東 6 10km以上 14 88 1008 弱い雨
16 13:50 北東 4 9000m 14 88 1009 弱い雨
16 13:20 5 9000m 14 82 1011 弱い雨
16 12:50 東南東 4 9000m 15 82 1011 弱い雨
16 12:20 南東 5 10km以上 15 77 1011
16 11:50 南東 4 10km以上 16 72 1011
16 11:20 南南東 3 10km以上 16 72 1012
16 10:50 南南東 3 10km以上 16 72 1012
16 10:20 南東 3 10km以上 16 72 1012
LIRF 180850Z 13011KT 9999 SCT040 15/10 Q1014 NOSIG
LIRF 180820Z 13010KT 9999 SCT040 13/10 Q1014 NOSIG
LIRF 180750Z 13009KT 9999 FEW035 SCT045 13/10 Q1013 NOSIG
LIRF 180720Z 12010KT 9999 SCT035 12/09 Q1013 NOSIG
LIRF 180650Z 13010KT 9999 VCSH FEW010CB SCT020 BKN040 12/09 Q1013 TEMPO 4000 SHRA
LIRF 180620Z 11008KT 9999 FEW040 SCT050 12/09 Q1013 NOSIG
LIRF 180550Z 14007KT 9999 FEW035 SCT050 12/09 Q1013 NOSIG
LIRF 180520Z 13009KT 9999 SCT050 12/09 Q1012 NOSIG
LIRF 180450Z 20008KT 9999 SCT050 14/09 Q1012 NOSIG
LIRF 180420Z 20007KT 9999 SCT050 14/09 Q1012 NOSIG
LIRF 180350Z 21011KT 9999 FEW030 14/09 Q1012 NOSIG
LIRF 180320Z 10005KT 070V230 9999 SCT030 10/08 Q1012 NOSIG
LIRF 180250Z 08006KT 050V110 CAVOK 09/08 Q1011 NOSIG
LIRF 180220Z 22008KT CAVOK 13/08 Q1011 NOSIG
LIRF 180150Z 23007KT CAVOK 14/08 Q1011 NOSIG
LIRF 180120Z 23007KT CAVOK 13/08 Q1011 NOSIG
LIRF 180050Z VRB04KT CAVOK 11/09 Q1011 NOSIG
LIRF 180020Z 18005KT 090V250 CAVOK 11/10 Q1011 NOSIG
LIRF 172350Z 08003KT 050V110 9999 FEW030 09/09 Q1011 NOSIG
LIRF 172320Z 09004KT 9999 SCT040 10/09 Q1011 NOSIG
LIRF 172250Z 07003KT 020V120 9999 SCT040 10/09 Q1011 NOSIG
LIRF 172220Z VRB02KT 9999 SCT045 10/09 Q1010 NOSIG
LIRF 172150Z 07005KT 9999 SCT045 10/09 Q1010 NOSIG
LIRF 172120Z VRB02KT 9999 -RA SCT040 10/10 Q1010 NOSIG
LIRF 172050Z 07003KT 040V110 9999 -RA SCT040 10/09 Q1010 NOSIG
LIRF 172020Z 07003KT 040V100 CAVOK 10/09 Q1010 NOSIG
LIRF 171950Z 06003KT 9999 FEW040 10/09 Q1010 NOSIG
LIRF 171920Z 07006KT 9999 FEW040 11/09 Q1009 NOSIG
LIRF 171850Z 10004KT 9999 FEW040 12/09 Q1009 NOSIG
LIRF 171820Z 11003KT 9999 FEW040 11/09 Q1009 NOSIG
LIRF 171750Z 06005KT 9999 FEW040 12/09 Q1008 NOSIG
LIRF 171720Z 07003KT 9999 FEW040 12/09 Q1008 NOSIG
LIRF 171650Z 36003KT 9999 SCT035 12/09 Q1007 NOSIG
LIRF 171620Z 30006KT 9999 SCT040 13/09 Q1007 NOSIG
LIRF 171550Z 31007KT 9999 SCT030 13/10 Q1006 NOSIG
LIRF 171450Z 29011KT 9999 SCT035 14/10 Q1005 NOSIG
LIRF 171420Z 30016KT 7000 -SHRA FEW010TCU SCT025 13/12 Q1005 NOSIG
LIRF 171350Z 28005KT 240V310 9999 -SHRA SCT015TCU SCT030 15/12 Q1004 NOSIG
LIRF 171320Z 25010KT 9999 -SHRA SCT015TCU BKN030 15/12 Q1003 RERA NOSIG
LIRF 171250Z 18007KT 6000 SHRA FEW015 SCT030TCU BKN040 17/10 Q1003 NOSIG
LIRF 171220Z 13006KT 100V160 9999 VCSH SCT030TCU SCT040 16/12 Q1003 TEMPO SHRA
LIRF 171150Z 13005KT 110V170 9999 SCT035 SCT045 15/12 Q1002 TEMPO SHRA
LIRF 171120Z 16007KT 130V200 9999 -RA SCT035 SCT045 15/12 Q1003 TEMPO SHRA
LIRF 171050Z 20013KT 9999 FEW020TCU SCT030 16/12 Q1003 RESHRA TEMPO SHRA
LIRF 171020Z 18011G21KT 150V210 9999 SHRA FEW020 SCT030TCU BKN045 16/12 Q1003 NOSIG
LIRF 170950Z 18010KT 9999 SCT035TCU 18/10 Q1003 NOSIG
LIRF 170920Z 18011G22KT 9999 SCT030 SCT035TCU 17/10 Q1003 TEMPO RA NOSIG
LIRF 170850Z 18012G24KT 150V210 9999 SCT035 17/10 Q1003 TEMPO RA NOSIG
LIRF 170820Z 18013KT 9999 SCT030 17/09 Q1003 NOSIG
LIRF 170750Z 19017KT 9999 SCT030 SCT040 17/10 Q1002 NOSIG
LIRF 170720Z 19015KT 9999 SCT030 SCT040 17/10 Q1002 NOSIG
LIRF 170650Z 19019KT 9999 SCT030 BKN045 17/11 Q1001 RMK WS RWY 16R RMK WS RWY 16L NOSIG
LIRF 170620Z 20023G33KT 9999 VCTS FEW015CB BKN030 18/13 Q1001 RMK WS RWY 16R TEMPO 4000 SHRA
LIRF 170550Z 19018G30KT 9000 VCTS FEW015CB SCT035 18/13 Q1000 TEMPO 4000 SHRA
LIRF 170520Z 15020KT 9000 FEW020 SCT035 18/16 Q1000 TEMPO 4000 SHRA
LIRF 170450Z 15018G28KT 9000 SCT050 18/16 Q0999 TEMPO 4000 SHRA
LIRF 170420Z 15020G31KT 9000 VCTS FEW020CB SCT030 BKN050 17/15 Q0999 RETSRA TEMPO 4000 SHRA
LIRF 170350Z 14024G34KT 5000 TSRA SCT020CB SCT035 BKN045 18/15 Q0998 NOSIG
LIRF 170320Z 14025KT 9999 FEW020CB SCT035 BKN055 19/15 Q0999 TEMPO TSRA
LIRF 170250Z 13025G37KT 9999 FEW020CB SCT035 BKN055 18/14 Q0999 TEMPO TSRA
LIRF 170220Z 13024KT 9999 FEW020 SCT050 18/14 Q1000 TEMPO TSRA
LIRF 170150Z 13023G34KT 8000 -SHRA FEW020 SCT035 BKN055 18/15 Q1000 RERA TEMPO TSRA
LIRF 170120Z 14026KT 7000 RA SCT020 BKN045 18/14 Q1001 NOSIG
LIRF 170050Z 14025G38KT CAVOK 19/14 Q1001 NOSIG
LIRF 170020Z 14025G35KT CAVOK 20/14 Q1001 NOSIG
LIRF 162350Z 14023G34KT CAVOK 19/14 Q1001 NOSIG
LIRF 162320Z 14023G33KT CAVOK 19/14 Q1001 NOSIG
LIRF 162250Z 14025G37KT CAVOK 20/13 Q1002 NOSIG
LIRF 162220Z 14024KT CAVOK 20/13 Q1002 NOSIG
LIRF 162150Z 14024KT CAVOK 19/14 Q1002 NOSIG
LIRF 162120Z 13025G35KT CAVOK 20/14 Q1002 NOSIG
LIRF 162050Z 14022KT CAVOK 19/14 Q1002 TEMPO RA
LIRF 162020Z 14023KT CAVOK 19/14 Q1003 NOSIG
LIRF 161950Z 13021KT CAVOK 19/14 Q1003 NOSIG
LIRF 161920Z 14022G32KT 9999 VCTS FEW050 19/14 Q1003 RETSRA NOSIG
LIRF 161850Z 13020KT 9999 -RA VCTS FEW020CB SCT050 18/15 Q1003 RETSRA NOSIG
LIRF 161820Z 11022G32KT 8000 TSRA FEW020CB SCT050 17/14 Q1002 NOSIG
LIRF 161750Z 13016KT 8000 RA SCT055 17/14 Q1004 BECMG 4000 TSRA
LIRF 161720Z 11010KT 070V130 8000 RA FEW050 16/14 Q1004 TEMPO SHRA
LIRF 161650Z 10010KT 9999 -RA FEW050 15/12 Q1004 NOSIG
LIRF 161620Z 09011KT 8000 -RA VCTS FEW020CB SCT045 14/12 Q1005 RERA TEMPO TSRA
LIRF 161550Z 07012KT 8000 -RA VCTS FEW020CB SCT045 14/12 Q1005 RERA TEMPO TSRA
LIRF 161520Z 06008KT 6000 RA VCTS FEW020CB SCT050 14/12 Q1006 TEMPO TSRA
LIRF 161450Z 07008KT 8000 -RA FEW045 14/12 Q1007 TEMPO TSRA
LIRF 161420Z 07013KT 8000 -RA FEW050 14/12 Q1007 BECMG RA
LIRF 161350Z 07014KT CAVOK 14/12 Q1007 NOSIG
LIRF 161320Z 05011KT 9999 -RA SCT032 14/12 Q1008 NOSIG
LIRF 161250Z 04008KT 9000 -RA FEW040 14/12 Q1009 NOSIG
LIRF 161220Z 10010KT 9000 -RA FEW040 14/11 Q1011 NOSIG
LIRF 161150Z 12008KT 9000 -RA FEW040 15/12 Q1011 NOSIG
LIRF 161120Z 13010KT 9999 FEW040 15/11 Q1011 TEMPO RA
LIRF 161050Z 14008KT 120V190 9999 FEW040 16/11 Q1011 NOSIG
LIRF 161020Z 15005KT 130V200 9999 FEW040 16/11 Q1012 TEMPO RA
LIRF 160950Z 15006KT 130V200 9999 FEW040 16/11 Q1012 TEMPO RA
LIRF 160920Z 14006KT 9999 FEW020 16/11 Q1012 NOSIG